createdAt,value
2019-04-14T00:02:55.476Z,24.07
2019-04-14T00:08:00.347Z,24.97
2019-04-14T00:13:05.130Z,24.80
2019-04-14T00:18:09.744Z,38.13
2019-04-14T00:23:15.158Z,28.33
2019-04-14T00:28:20.649Z,26.23
2019-04-14T00:33:28.022Z,25.37
2019-04-14T00:38:34.613Z,26.40
2019-04-14T00:43:49.227Z,23.87
2019-04-14T00:48:54.025Z,23.60
2019-04-14T00:54:00.215Z,23.77
2019-04-14T00:59:07.029Z,23.37
2019-04-14T01:04:12.238Z,23.63
2019-04-14T01:09:17.250Z,21.93
2019-04-14T01:14:21.773Z,21.90
2019-04-14T01:19:26.630Z,23.37
2019-04-14T01:24:31.568Z,22.47
2019-04-14T01:29:36.319Z,22.57
2019-04-14T01:34:41.764Z,21.27
2019-04-14T01:39:46.275Z,21.87
2019-04-14T01:44:50.725Z,21.43
2019-04-14T01:49:55.247Z,20.83
2019-04-14T01:55:17.754Z,20.20
2019-04-14T02:00:44.413Z,20.83
2019-04-14T02:05:49.605Z,20.63
2019-04-14T02:10:54.429Z,21.00
2019-04-14T02:16:12.849Z,19.40
2019-04-14T02:21:06.356Z,19.48
2019-04-14T02:26:11.290Z,19.43
2019-04-14T02:31:39.399Z,20.20
2019-04-14T02:36:47.941Z,18.87
2019-04-14T02:42:06.862Z,18.90
2019-04-14T02:47:12.356Z,18.77
2019-04-14T02:52:13.933Z,18.83
2019-04-14T02:57:19.975Z,18.37
2019-04-14T03:07:30.264Z,18.53
2019-04-14T03:12:34.680Z,18.60
2019-04-14T03:18:20.488Z,18.77
2019-04-14T03:23:14.943Z,17.10
2019-04-14T03:28:27.718Z,16.67
2019-04-14T03:38:50.243Z,16.63
2019-04-14T03:43:38.791Z,15.57
2019-04-14T03:53:55.955Z,15.40
2019-04-14T03:58:35.744Z,14.90
2019-04-14T04:03:41.357Z,15.57
2019-04-14T04:08:46.442Z,15.10
2019-04-14T04:13:52.000Z,15.63
2019-04-14T04:19:05.655Z,15.00
2019-04-14T04:24:12.870Z,18.77
2019-04-14T04:29:22.334Z,26.07
2019-04-14T04:34:31.652Z,23.33
2019-04-14T04:39:38.659Z,17.43
2019-04-14T04:44:44.218Z,15.53
2019-04-14T04:49:49.049Z,14.97
2019-04-14T04:54:53.858Z,14.33
2019-04-14T04:59:58.409Z,14.33
2019-04-14T05:05:03.573Z,13.97
2019-04-14T05:10:13.185Z,13.93
2019-04-14T05:15:20.484Z,14.33
2019-04-14T05:20:25.124Z,13.48
2019-04-14T05:25:29.744Z,13.60
2019-04-14T05:30:35.005Z,12.90
2019-04-14T05:35:40.136Z,13.80
2019-04-14T05:40:45.085Z,13.67
2019-04-14T05:45:50.168Z,14.20
2019-04-14T05:50:55.497Z,13.30
2019-04-14T05:55:59.980Z,13.90
2019-04-14T06:01:04.861Z,12.50
2019-04-14T06:06:09.265Z,13.10
2019-04-14T06:11:13.909Z,13.25
2019-04-14T06:16:18.413Z,14.03
2019-04-14T06:21:23.031Z,13.83
2019-04-14T06:26:27.523Z,13.30
2019-04-14T06:31:45.822Z,12.93
2019-04-14T06:36:52.963Z,13.00
2019-04-14T06:41:57.506Z,14.30
2019-04-14T06:47:02.259Z,13.57
2019-04-14T06:52:08.042Z,13.57
2019-04-14T06:57:12.637Z,15.50
2019-04-14T07:02:17.096Z,13.93
2019-04-14T07:07:21.724Z,18.53
2019-04-14T07:12:27.956Z,13.47
2019-04-14T07:17:32.405Z,12.87
2019-04-14T07:22:37.055Z,12.83
2019-04-14T07:27:41.528Z,12.23
2019-04-14T07:32:50.420Z,11.80
2019-04-14T07:37:56.647Z,12.90
2019-04-14T07:43:05.840Z,13.13
2019-04-14T07:48:12.032Z,11.87
2019-04-14T07:53:26.992Z,12.53
2019-04-14T07:58:33.111Z,11.97
2019-04-14T08:03:41.250Z,12.30
2019-04-14T08:08:45.785Z,12.77
2019-04-14T08:13:50.365Z,12.97
2019-04-14T08:18:55.022Z,12.17
2019-04-14T08:23:59.524Z,13.07
2019-04-14T08:29:04.137Z,11.90
2019-04-14T08:34:08.545Z,12.17
2019-04-14T08:39:13.052Z,12.27
2019-04-14T08:44:31.082Z,12.33
2019-04-14T08:49:49.304Z,13.10
2019-04-14T08:54:55.395Z,12.50
2019-04-14T09:00:18.056Z,12.33
2019-04-14T09:05:40.522Z,12.30
2019-04-14T09:11:02.062Z,12.60
2019-04-14T09:16:06.581Z,12.87
2019-04-14T09:21:11.138Z,13.20
2019-04-14T09:26:15.724Z,14.03
2019-04-14T09:31:20.199Z,13.57
2019-04-14T09:36:24.684Z,13.00
2019-04-14T09:41:29.236Z,14.28
2019-04-14T09:46:34.769Z,12.70
2019-04-14T09:51:39.408Z,12.53
2019-04-14T09:56:44.047Z,12.63
2019-04-14T10:01:48.735Z,13.10
2019-04-14T10:06:53.304Z,12.40
2019-04-14T10:11:57.839Z,12.80
2019-04-14T10:17:02.427Z,12.13
2019-04-14T10:22:07.897Z,12.77
2019-04-14T10:27:14.815Z,12.33
2019-04-14T10:32:19.270Z,12.50
2019-04-14T10:37:23.877Z,11.77
2019-04-14T10:42:28.476Z,11.23
2019-04-14T10:47:33.081Z,11.60
2019-04-14T10:52:37.618Z,11.77
2019-04-14T10:57:42.083Z,12.13
2019-04-14T11:02:46.733Z,12.37
2019-04-14T11:07:51.302Z,12.13
2019-04-14T11:12:56.850Z,11.80
2019-04-14T11:18:01.368Z,11.33
2019-04-14T11:23:05.897Z,11.90
2019-04-14T11:28:10.485Z,11.97
2019-04-14T11:33:16.728Z,11.60
2019-04-14T11:38:28.369Z,13.33
2019-04-14T11:43:33.109Z,12.67
2019-04-14T11:48:37.637Z,12.60
2019-04-14T11:53:42.331Z,12.93
2019-04-14T11:58:46.935Z,12.13
2019-04-14T12:03:53.133Z,12.57
2019-04-14T12:09:17.819Z,12.10
2019-04-14T12:14:22.293Z,12.05
2019-04-14T12:19:26.836Z,11.00
2019-04-14T12:24:31.441Z,10.83
2019-04-14T12:29:36.888Z,11.43
2019-04-14T12:34:41.539Z,11.40
2019-04-14T12:39:47.211Z,10.90
2019-04-14T12:44:56.053Z,10.53
2019-04-14T12:50:07.906Z,10.30
2019-04-14T12:55:13.397Z,11.30
2019-04-14T13:00:35.568Z,10.48
2019-04-14T13:05:40.042Z,10.33
2019-04-14T13:10:44.594Z,9.60
2019-04-14T13:15:49.067Z,11.00
2019-04-14T13:20:53.673Z,11.00
2019-04-14T13:25:58.253Z,10.53
2019-04-14T13:31:02.776Z,10.77
2019-04-14T13:36:07.357Z,10.30
2019-04-14T13:41:12.180Z,11.13
2019-04-14T13:46:16.793Z,9.20
2019-04-14T13:51:21.463Z,10.00
2019-04-14T13:56:26.147Z,9.30
2019-04-14T14:01:30.816Z,9.13
2019-04-14T14:06:36.456Z,10.40
2019-04-14T14:11:54.426Z,9.20
2019-04-14T14:17:03.143Z,8.80
2019-04-14T14:22:09.349Z,8.80
2019-04-14T14:27:14.024Z,9.17
2019-04-14T14:32:20.451Z,9.43
2019-04-14T14:37:25.234Z,9.07
2019-04-14T14:42:29.853Z,9.07
2019-04-14T14:47:35.704Z,9.53
2019-04-14T14:52:41.207Z,9.23
2019-04-14T14:57:45.898Z,9.20
2019-04-14T15:02:50.702Z,8.90
2019-04-14T15:07:55.429Z,8.60
2019-04-14T15:13:01.213Z,8.53
2019-04-14T15:18:05.946Z,8.30
2019-04-14T15:23:10.500Z,8.27
2019-04-14T15:28:15.769Z,8.13
2019-04-14T15:33:20.650Z,7.53
2019-04-14T15:38:25.315Z,7.80
2019-04-14T15:43:30.864Z,8.27
2019-04-14T15:48:35.433Z,7.40
2019-04-14T15:53:39.994Z,7.93
2019-04-14T15:58:46.765Z,7.63
2019-04-14T16:03:56.046Z,6.93
2019-04-14T16:09:05.071Z,7.83
2019-04-14T16:14:12.910Z,8.97
2019-04-14T16:19:33.914Z,14.50
2019-04-14T16:24:38.374Z,15.67
2019-04-14T16:29:47.072Z,8.83
2019-04-14T16:34:53.343Z,8.23
2019-04-14T16:39:58.217Z,8.03
2019-04-14T16:45:03.098Z,7.77
2019-04-14T16:50:10.507Z,7.57
2019-04-14T17:00:37.122Z,6.37
2019-04-14T17:05:41.932Z,7.87
2019-04-14T17:10:46.499Z,7.83
2019-04-14T17:16:08.108Z,8.57
2019-04-14T17:21:20.277Z,6.90
2019-04-14T17:26:43.639Z,6.60
2019-04-14T17:31:52.783Z,6.43
2019-04-14T17:37:07.988Z,6.80
2019-04-14T17:42:19.161Z,6.97
2019-04-14T17:47:26.463Z,6.83
2019-04-14T17:52:39.812Z,6.47
2019-04-14T17:57:49.271Z,6.03
2019-04-14T18:02:56.142Z,5.53
2019-04-14T18:08:02.430Z,5.10
2019-04-14T18:13:14.304Z,5.23
2019-04-14T18:18:20.528Z,4.77
2019-04-14T18:23:26.654Z,5.07
2019-04-14T18:28:51.771Z,4.63
2019-04-14T18:34:07.033Z,4.60
2019-04-14T18:39:29.110Z,4.80
2019-04-14T18:44:44.338Z,4.60
2019-04-14T18:49:53.332Z,5.10
2019-04-14T18:55:08.743Z,5.00
2019-04-14T19:00:21.188Z,5.10
2019-04-14T19:05:25.735Z,4.43
2019-04-14T19:10:30.266Z,4.80
2019-04-14T19:15:36.724Z,5.37
2019-04-14T19:20:42.839Z,4.47
2019-04-14T19:25:47.530Z,4.53
2019-04-14T19:30:52.988Z,4.80
2019-04-14T19:35:57.932Z,4.60
2019-04-14T19:41:02.640Z,4.67
2019-04-14T19:46:10.056Z,5.33
2019-04-14T19:51:14.704Z,5.20
2019-04-14T19:56:19.253Z,5.20
2019-04-14T20:01:23.845Z,5.73
2019-04-14T20:06:28.390Z,10.47
2019-04-14T20:11:34.016Z,11.00
2019-04-14T20:16:49.384Z,10.60
2019-04-14T20:22:01.448Z,16.17
2019-04-14T20:27:07.770Z,17.13
2019-04-14T20:32:14.158Z,13.93
2019-04-14T20:37:18.693Z,10.53
2019-04-14T20:42:23.521Z,7.20
2019-04-14T20:47:28.109Z,7.27
2019-04-14T20:52:32.629Z,6.33
2019-04-14T20:57:37.274Z,6.20
2019-04-14T21:03:02.668Z,5.70
2019-04-14T21:08:14.697Z,5.67
2019-04-14T21:13:33.121Z,6.03
2019-04-14T21:18:42.285Z,5.93
2019-04-14T21:24:01.582Z,6.20
2019-04-14T21:29:11.105Z,5.57
2019-04-14T21:34:17.364Z,6.10
2019-04-14T21:39:40.646Z,5.90
2019-04-14T21:44:44.789Z,5.10
2019-04-14T21:49:49.214Z,6.43
2019-04-14T21:54:53.748Z,6.87
2019-04-14T22:00:05.690Z,8.03
2019-04-14T22:05:19.219Z,8.33
2019-04-14T22:10:25.427Z,6.80
2019-04-14T22:15:29.918Z,7.37
2019-04-14T22:20:34.349Z,5.80
2019-04-14T22:25:39.783Z,5.57
2019-04-14T22:30:44.336Z,6.17
2019-04-14T22:35:48.827Z,5.67
2019-04-14T22:40:53.399Z,5.53
2019-04-14T22:45:57.847Z,5.87
2019-04-14T22:51:02.402Z,5.58
2019-04-14T22:56:07.886Z,5.80
2019-04-14T23:01:14.041Z,6.03
2019-04-14T23:06:20.202Z,6.37
2019-04-14T23:11:41.079Z,6.40
2019-04-14T23:16:47.254Z,5.93
2019-04-14T23:21:53.389Z,5.67
2019-04-14T23:26:58.047Z,5.50
2019-04-14T23:32:02.544Z,6.43
2019-04-14T23:37:07.139Z,5.87
2019-04-14T23:42:11.619Z,6.37
2019-04-14T23:47:16.253Z,6.03
2019-04-14T23:52:20.758Z,6.15
2019-04-14T23:57:25.248Z,6.03
